ICAO code: LHPR | IATA code: QGY | AFTN: LHPRZPZX | english | deutsch
Időjárás: 2018-09-18 15:00 (UTC) | Hőmérséklet: 25.5 °C | QNH: 1020.4 hPa | Szél: 5.4 m/s | Részletek
Live ATC LHPR
Webkameránk élőképe

Győr-Pér Repülőtér időjárás adatok

Metar:
METAR LHPR 181445Z 14009KT 110V170 CAVOK 26/09 Q1020 RMK BL


Taf:
TAF LHPR 181415Z 1815/1824 15009KT CAVOK BECMG 1817/1820 12004KT


Jelenidő:
Nem volt érdemleges időjárási jelenség az elmúlt órában
Időbélyeg: 2018-09-18 15:00:00 UTC
Hőmérséklet:
25.5 °C
 
Harmatpont:
8.4 °C
 
Rel. páratartalom:
34%
 
QNH:
1020.4 hPa
 
Szélsebesség:
5.4 m/s
Max:
6.4 m/s
Szélirány:
140°
 
Csapadék (1 óra):
0.0 mm
 
Látótávolság:
20000 m
 
RVR:
>1500 m RWY30
 
1. felhőréteg mennyisége:
0 octa
 
1. felhőréteg alapja:
m


Az adatokat szolgáltatja
az Országos Meteorológiai Szolgálat
Győr-Pér Repülőtér | H 9099 Pér, Repülőtér | Tel: +36/96/559-200 | Fax: +36/96/559-202

ICAO code: LHPR | IATA code: QGY | AFTN: LHPRZPZX


weboldal tervezés: IRQ